sensor_id;sensor_type;location;lat;lon;timestamp;pressure;altitude;pressure_sealevel;temperature;humidity
10470;BME280;5282;47.052;15.458;2023-02-12T00:00:11;98967.44;;;0.09;100.00
10470;BME280;5282;47.052;15.458;2023-02-12T00:02:40;98987.81;;;-0.14;100.00
10470;BME280;5282;47.052;15.458;2023-02-12T00:05:07;98983.19;;;-0.09;100.00
10470;BME280;5282;47.052;15.458;2023-02-12T00:07:34;98978.09;;;0.07;100.00
10470;BME280;5282;47.052;15.458;2023-02-12T00:10:04;98979.88;;;-0.14;100.00
10470;BME280;5282;47.052;15.458;2023-02-12T00:12:32;98974.69;;;-0.17;100.00
10470;BME280;5282;47.052;15.458;2023-02-12T00:14:59;98991.38;;;-0.15;100.00
10470;BME280;5282;47.052;15.458;2023-02-12T00:17:27;98992.44;;;-0.19;100.00
10470;BME280;5282;47.052;15.458;2023-02-12T00:19:53;98983.59;;;-0.18;100.00
10470;BME280;5282;47.052;15.458;2023-02-12T00:22:21;98989.69;;;0.05;100.00
10470;BME280;5282;47.052;15.458;2023-02-12T00:24:48;98977.97;;;0.10;100.00
10470;BME280;5282;47.052;15.458;2023-02-12T00:27:16;98982.47;;;0.08;100.00
10470;BME280;5282;47.052;15.458;2023-02-12T00:29:43;98983.06;;;0.15;100.00
10470;BME280;5282;47.052;15.458;2023-02-12T00:32:12;98985.91;;;0.10;100.00
10470;BME280;5282;47.052;15.458;2023-02-12T00:34:44;98991.06;;;-0.07;100.00
10470;BME280;5282;47.052;15.458;2023-02-12T00:37:11;98985.25;;;0.05;100.00
10470;BME280;5282;47.052;15.458;2023-02-12T00:39:38;98977.22;;;0.07;100.00
10470;BME280;5282;47.052;15.458;2023-02-12T00:42:05;98989.13;;;-0.04;100.00
10470;BME280;5282;47.052;15.458;2023-02-12T00:44:33;98990.25;;;-0.09;100.00
10470;BME280;5282;47.052;15.458;2023-02-12T00:47:00;98991.44;;;-0.17;100.00
10470;BME280;5282;47.052;15.458;2023-02-12T00:49:27;98995.75;;;-0.14;100.00
10470;BME280;5282;47.052;15.458;2023-02-12T00:51:59;98988.81;;;-0.17;100.00
10470;BME280;5282;47.052;15.458;2023-02-12T00:54:26;98996.94;;;-0.21;100.00
10470;BME280;5282;47.052;15.458;2023-02-12T00:56:55;98994.13;;;-0.39;100.00
10470;BME280;5282;47.052;15.458;2023-02-12T00:59:21;99003.66;;;-0.35;100.00
10470;BME280;5282;47.052;15.458;2023-02-12T01:01:52;99021.41;;;-0.16;100.00
10470;BME280;5282;47.052;15.458;2023-02-12T01:04:22;99021.19;;;-0.10;100.00
10470;BME280;5282;47.052;15.458;2023-02-12T01:06:49;99007.66;;;-0.04;100.00
10470;BME280;5282;47.052;15.458;2023-02-12T01:09:16;99016.28;;;-0.19;100.00
10470;BME280;5282;47.052;15.458;2023-02-12T01:11:42;99011.72;;;-0.16;100.00
10470;BME280;5282;47.052;15.458;2023-02-12T01:14:09;99001.41;;;-0.01;100.00
10470;BME280;5282;47.052;15.458;2023-02-12T01:16:36;98997.69;;;0.03;100.00
10470;BME280;5282;47.052;15.458;2023-02-12T01:19:05;98995.00;;;0.05;100.00
10470;BME280;5282;47.052;15.458;2023-02-12T01:21:33;99005.81;;;-0.02;100.00
10470;BME280;5282;47.052;15.458;2023-02-12T01:24:01;99011.81;;;0.04;100.00
10470;BME280;5282;47.052;15.458;2023-02-12T01:26:29;99017.09;;;0.04;100.00
10470;BME280;5282;47.052;15.458;2023-02-12T01:28:58;99020.47;;;-0.13;100.00
10470;BME280;5282;47.052;15.458;2023-02-12T01:31:27;99018.00;;;-0.18;100.00
10470;BME280;5282;47.052;15.458;2023-02-12T01:33:56;99010.91;;;-0.18;100.00
10470;BME280;5282;47.052;15.458;2023-02-12T01:36:26;99004.63;;;-0.15;100.00
10470;BME280;5282;47.052;15.458;2023-02-12T01:38:53;99005.41;;;-0.13;100.00
10470;BME280;5282;47.052;15.458;2023-02-12T01:41:22;99010.56;;;-0.30;100.00
10470;BME280;5282;47.052;15.458;2023-02-12T01:44:14;99006.53;;;-0.19;100.00
10470;BME280;5282;47.052;15.458;2023-02-12T01:46:45;99014.50;;;-0.41;100.00
10470;BME280;5282;47.052;15.458;2023-02-12T01:49:17;99021.88;;;-0.49;100.00
10470;BME280;5282;47.052;15.458;2023-02-12T01:51:51;98992.16;;;-0.34;100.00
10470;BME280;5282;47.052;15.458;2023-02-12T01:54:20;98992.66;;;-0.46;100.00
10470;BME280;5282;47.052;15.458;2023-02-12T01:56:50;98995.19;;;-0.43;100.00
10470;BME280;5282;47.052;15.458;2023-02-12T01:59:19;98997.16;;;-0.70;100.00
10470;BME280;5282;47.052;15.458;2023-02-12T02:01:46;98986.56;;;-0.48;100.00
10470;BME280;5282;47.052;15.458;2023-02-12T02:04:16;99010.97;;;-0.86;100.00
10470;BME280;5282;47.052;15.458;2023-02-12T02:06:49;98998.94;;;-0.71;100.00
10470;BME280;5282;47.052;15.458;2023-02-12T02:09:19;98999.03;;;-0.74;100.00
10470;BME280;5282;47.052;15.458;2023-02-12T02:11:46;99005.03;;;-0.69;100.00
10470;BME280;5282;47.052;15.458;2023-02-12T02:14:30;99011.88;;;-0.87;100.00
10470;BME280;5282;47.052;15.458;2023-02-12T02:17:23;99007.41;;;-0.63;100.00
10470;BME280;5282;47.052;15.458;2023-02-12T02:20:16;99006.19;;;-0.54;100.00
10470;BME280;5282;47.052;15.458;2023-02-12T02:22:55;99014.31;;;-0.58;100.00
10470;BME280;5282;47.052;15.458;2023-02-12T02:26:10;99006.19;;;-0.54;100.00
10470;BME280;5282;47.052;15.458;2023-02-12T02:28:58;99010.59;;;-0.76;100.00
10470;BME280;5282;47.052;15.458;2023-02-12T02:31:35;99006.31;;;-0.57;100.00
10470;BME280;5282;47.052;15.458;2023-02-12T02:34:09;99003.19;;;-0.67;100.00
10470;BME280;5282;47.052;15.458;2023-02-12T02:36:43;99023.09;;;-0.80;100.00
10470;BME280;5282;47.052;15.458;2023-02-12T02:39:14;99032.28;;;-0.67;100.00
10470;BME280;5282;47.052;15.458;2023-02-12T02:41:47;99048.72;;;-0.82;100.00
10470;BME280;5282;47.052;15.458;2023-02-12T02:44:21;99033.13;;;-0.66;100.00
10470;BME280;5282;47.052;15.458;2023-02-12T02:46:52;99018.22;;;-0.91;100.00
10470;BME280;5282;47.052;15.458;2023-02-12T02:49:22;99020.44;;;-0.80;100.00
10470;BME280;5282;47.052;15.458;2023-02-12T02:51:54;99021.81;;;-0.70;100.00
10470;BME280;5282;47.052;15.458;2023-02-12T02:54:25;99018.94;;;-0.64;100.00
10470;BME280;5282;47.052;15.458;2023-02-12T02:56:57;99023.78;;;-0.75;100.00
10470;BME280;5282;47.052;15.458;2023-02-12T02:59:27;99031.50;;;-0.93;100.00
10470;BME280;5282;47.052;15.458;2023-02-12T03:02:00;99032.59;;;-0.98;100.00
10470;BME280;5282;47.052;15.458;2023-02-12T03:04:31;99038.63;;;-0.95;100.00
10470;BME280;5282;47.052;15.458;2023-02-12T03:07:03;99030.78;;;-0.74;100.00
10470;BME280;5282;47.052;15.458;2023-02-12T03:09:35;99023.09;;;-0.80;100.00
10470;BME280;5282;47.052;15.458;2023-02-12T03:12:08;99009.38;;;-0.68;100.00
10470;BME280;5282;47.052;15.458;2023-02-12T03:14:43;99020.44;;;-0.80;100.00
10470;BME280;5282;47.052;15.458;2023-02-12T03:17:14;99022.97;;;-0.77;100.00
10470;BME280;5282;47.052;15.458;2023-02-12T03:19:45;99034.97;;;-0.68;100.00
10470;BME280;5282;47.052;15.458;2023-02-12T03:22:15;99034.66;;;-0.60;100.00
10470;BME280;5282;47.052;15.458;2023-02-12T03:24:46;99034.22;;;-0.72;100.00
10470;BME280;5282;47.052;15.458;2023-02-12T03:27:18;99027.00;;;-0.67;100.00
10470;BME280;5282;47.052;15.458;2023-02-12T03:29:46;99045.16;;;-0.81;100.00
10470;BME280;5282;47.052;15.458;2023-02-12T03:32:28;99035.97;;;-0.71;100.00
10470;BME280;5282;47.052;15.458;2023-02-12T03:35:06;99034.41;;;-0.76;100.00
10470;BME280;5282;47.052;15.458;2023-02-12T03:37:37;99037.13;;;-0.78;100.00
10470;BME280;5282;47.052;15.458;2023-02-12T03:40:15;99037.69;;;-0.70;100.00
10470;BME280;5282;47.052;15.458;2023-02-12T03:42:47;99044.63;;;-0.67;100.00
10470;BME280;5282;47.052;15.458;2023-02-12T03:45:24;99050.44;;;-0.57;100.00
10470;BME280;5282;47.052;15.458;2023-02-12T03:48:01;99043.34;;;-0.79;100.00
10470;BME280;5282;47.052;15.458;2023-02-12T03:50:36;99043.22;;;-0.76;100.00
10470;BME280;5282;47.052;15.458;2023-02-12T03:53:05;99056.63;;;-0.81;100.00
10470;BME280;5282;47.052;15.458;2023-02-12T03:55:35;99053.63;;;-0.71;100.00
10470;BME280;5282;47.052;15.458;2023-02-12T03:58:08;99057.22;;;-0.74;100.00
10470;BME280;5282;47.052;15.458;2023-02-12T04:00:36;99062.78;;;-0.80;100.00
10470;BME280;5282;47.052;15.458;2023-02-12T04:03:08;99063.88;;;-0.86;100.00
10470;BME280;5282;47.052;15.458;2023-02-12T04:05:35;99075.75;;;-0.98;100.00
10470;BME280;5282;47.052;15.458;2023-02-12T04:08:06;99079.09;;;-0.93;100.00
10470;BME280;5282;47.052;15.458;2023-02-12T04:10:39;99082.03;;;-1.00;100.00
10470;BME280;5282;47.052;15.458;2023-02-12T04:13:15;99082.91;;;-1.00;100.00
10470;BME280;5282;47.052;15.458;2023-02-12T04:15:55;99083.81;;;-1.01;100.00
10470;BME280;5282;47.052;15.458;2023-02-12T04:18:29;99086.31;;;-0.98;100.00
10470;BME280;5282;47.052;15.458;2023-02-12T04:21:02;99078.56;;;-1.02;100.00
10470;BME280;5282;47.052;15.458;2023-02-12T04:23:41;99084.63;;;-0.99;100.00
10470;BME280;5282;47.052;15.458;2023-02-12T04:26:17;99075.88;;;-1.01;100.00
10470;BME280;5282;47.052;15.458;2023-02-12T04:28:54;99075.25;;;-1.07;100.00
10470;BME280;5282;47.052;15.458;2023-02-12T04:31:29;99071.25;;;-1.19;100.00
10470;BME280;5282;47.052;15.458;2023-02-12T04:34:06;99067.97;;;-1.26;100.00
10470;BME280;5282;47.052;15.458;2023-02-12T04:36:40;99069.88;;;-1.30;100.00
10470;BME280;5282;47.052;15.458;2023-02-12T04:39:15;99072.13;;;-1.19;100.00
10470;BME280;5282;47.052;15.458;2023-02-12T04:41:44;99082.41;;;-1.35;100.00
10470;BME280;5282;47.052;15.458;2023-02-12T04:44:17;99085.16;;;-1.38;100.00
10470;BME280;5282;47.052;15.458;2023-02-12T04:46:44;99081.09;;;-1.23;100.00
10470;BME280;5282;47.052;15.458;2023-02-12T04:49:15;99078.44;;;-1.23;100.00
10470;BME280;5282;47.052;15.458;2023-02-12T04:51:43;99080.34;;;-1.27;100.00
10470;BME280;5282;47.052;15.458;2023-02-12T04:54:11;99090.56;;;-1.17;100.00
10470;BME280;5282;47.052;15.458;2023-02-12T04:56:38;99093.28;;;-1.19;100.00
10470;BME280;5282;47.052;15.458;2023-02-12T04:59:05;99106.69;;;-1.25;100.00
10470;BME280;5282;47.052;15.458;2023-02-12T05:01:32;99104.78;;;-1.20;100.00
10470;BME280;5282;47.052;15.458;2023-02-12T05:04:00;99118.00;;;-1.45;100.00
10470;BME280;5282;47.052;15.458;2023-02-12T05:06:30;99113.00;;;-1.55;100.00
10470;BME280;5282;47.052;15.458;2023-02-12T05:08:57;99117.84;;;-1.67;100.00
10470;BME280;5282;47.052;15.458;2023-02-12T05:11:24;99117.69;;;-1.63;100.00
10470;BME280;5282;47.052;15.458;2023-02-12T05:13:52;99122.66;;;-1.53;100.00
10470;BME280;5282;47.052;15.458;2023-02-12T05:16:20;99123.47;;;-1.51;100.00
10470;BME280;5282;47.052;15.458;2023-02-12T05:18:47;99124.94;;;-1.43;100.00
10470;BME280;5282;47.052;15.458;2023-02-12T05:21:14;99122.88;;;-1.34;100.00
10470;BME280;5282;47.052;15.458;2023-02-12T05:23:45;99130.38;;;-1.22;100.00
10470;BME280;5282;47.052;15.458;2023-02-12T05:26:13;99139.72;;;-1.12;100.00
10470;BME280;5282;47.052;15.458;2023-02-12T05:28:41;99144.16;;;-1.12;100.00
10470;BME280;5282;47.052;15.458;2023-02-12T05:31:09;99141.59;;;-1.15;100.00
10470;BME280;5282;47.052;15.458;2023-02-12T05:33:38;99133.09;;;-1.23;100.00
10470;BME280;5282;47.052;15.458;2023-02-12T05:36:09;99140.84;;;-1.19;100.00
10470;BME280;5282;47.052;15.458;2023-02-12T05:38:36;99153.19;;;-1.19;100.00
10470;BME280;5282;47.052;15.458;2023-02-12T05:41:07;99153.50;;;-1.03;100.00
10470;BME280;5282;47.052;15.458;2023-02-12T05:43:34;99160.25;;;-0.95;100.00
10470;BME280;5282;47.052;15.458;2023-02-12T05:46:04;99160.22;;;-0.93;100.00
10470;BME280;5282;47.052;15.458;2023-02-12T05:48:32;99159.28;;;-0.92;100.00
10470;BME280;5282;47.052;15.458;2023-02-12T05:51:03;99182.66;;;-1.05;100.00
10470;BME280;5282;47.052;15.458;2023-02-12T05:53:30;99176.53;;;-1.05;100.00
10470;BME280;5282;47.052;15.458;2023-02-12T05:56:13;99176.63;;;-1.09;100.00
10470;BME280;5282;47.052;15.458;2023-02-12T05:58:41;99182.06;;;-0.88;100.00
10470;BME280;5282;47.052;15.458;2023-02-12T06:01:10;99183.16;;;-0.94;100.00
10470;BME280;5282;47.052;15.458;2023-02-12T06:03:38;99188.88;;;-0.81;100.00
10470;BME280;5282;47.052;15.458;2023-02-12T06:06:05;99196.03;;;-0.84;100.00
10470;BME280;5282;47.052;15.458;2023-02-12T06:08:33;99199.81;;;-0.91;100.00
10470;BME280;5282;47.052;15.458;2023-02-12T06:11:01;99207.09;;;-0.73;100.00
10470;BME280;5282;47.052;15.458;2023-02-12T06:13:30;99200.06;;;-0.74;100.00
10470;BME280;5282;47.052;15.458;2023-02-12T06:15:58;99207.88;;;-0.69;100.00
10470;BME280;5282;47.052;15.458;2023-02-12T06:18:25;99209.34;;;-0.62;100.00
10470;BME280;5282;47.052;15.458;2023-02-12T06:20:53;99227.06;;;-0.64;100.00
10470;BME280;5282;47.052;15.458;2023-02-12T06:23:20;99224.59;;;-0.69;100.00
10470;BME280;5282;47.052;15.458;2023-02-12T06:25:50;99233.53;;;-0.73;100.00
10470;BME280;5282;47.052;15.458;2023-02-12T06:28:20;99234.63;;;-0.53;100.00
10470;BME280;5282;47.052;15.458;2023-02-12T06:30:49;99242.22;;;-0.44;100.00
10470;BME280;5282;47.052;15.458;2023-02-12T06:33:16;99234.19;;;-0.41;100.00
10470;BME280;5282;47.052;15.458;2023-02-12T06:35:43;99237.59;;;-0.39;100.00
10470;BME280;5282;47.052;15.458;2023-02-12T06:38:10;99241.94;;;-0.36;100.00
10470;BME280;5282;47.052;15.458;2023-02-12T06:40:37;99243.53;;;-0.32;100.00
10470;BME280;5282;47.052;15.458;2023-02-12T06:43:05;99246.00;;;-0.27;100.00
10470;BME280;5282;47.052;15.458;2023-02-12T06:45:32;99240.59;;;-0.24;100.00
10470;BME280;5282;47.052;15.458;2023-02-12T06:48:01;99251.28;;;-0.26;100.00
10470;BME280;5282;47.052;15.458;2023-02-12T06:50:28;99264.44;;;-0.24;100.00
10470;BME280;5282;47.052;15.458;2023-02-12T06:52:57;99271.34;;;-0.20;100.00
10470;BME280;5282;47.052;15.458;2023-02-12T06:55:24;99269.53;;;-0.18;100.00
10470;BME280;5282;47.052;15.458;2023-02-12T06:57:51;99274.63;;;-0.37;100.00
10470;BME280;5282;47.052;15.458;2023-02-12T07:00:19;99278.69;;;-0.28;100.00
10470;BME280;5282;47.052;15.458;2023-02-12T07:02:51;99270.09;;;-0.10;100.00
10470;BME280;5282;47.052;15.458;2023-02-12T07:05:20;99274.91;;;0.03;100.00
10470;BME280;5282;47.052;15.458;2023-02-12T07:07:47;99280.97;;;0.06;100.00
10470;BME280;5282;47.052;15.458;2023-02-12T07:10:15;99273.75;;;0.10;100.00
10470;BME280;5282;47.052;15.458;2023-02-12T07:12:42;99274.00;;;0.04;100.00
10470;BME280;5282;47.052;15.458;2023-02-12T07:15:09;99290.28;;;-0.07;100.00
10470;BME280;5282;47.052;15.458;2023-02-12T07:17:36;99289.66;;;0.10;100.00
10470;BME280;5282;47.052;15.458;2023-02-12T07:20:04;99282.16;;;0.21;100.00
10470;BME280;5282;47.052;15.458;2023-02-12T07:22:36;99285.34;;;0.29;100.00
10470;BME280;5282;47.052;15.458;2023-02-12T07:25:03;99285.81;;;0.41;100.00
10470;BME280;5282;47.052;15.458;2023-02-12T07:27:30;99298.31;;;0.37;100.00
10470;BME280;5282;47.052;15.458;2023-02-12T07:29:59;99288.44;;;0.41;100.00
10470;BME280;5282;47.052;15.458;2023-02-12T07:32:26;99288.59;;;0.38;100.00
10470;BME280;5282;47.052;15.458;2023-02-12T07:34:53;99287.94;;;0.55;100.00
10470;BME280;5282;47.052;15.458;2023-02-12T07:37:20;99280.25;;;0.69;100.00
10470;BME280;5282;47.052;15.458;2023-02-12T07:39:49;99287.41;;;0.89;100.00
10470;BME280;5282;47.052;15.458;2023-02-12T07:42:16;99283.59;;;0.97;100.00
10470;BME280;5282;47.052;15.458;2023-02-12T07:44:43;99281.34;;;1.08;100.00
10470;BME280;5282;47.052;15.458;2023-02-12T07:47:11;99286.38;;;1.14;100.00
10470;BME280;5282;47.052;15.458;2023-02-12T07:49:37;99280.03;;;1.18;100.00
10470;BME280;5282;47.052;15.458;2023-02-12T07:52:04;99292.28;;;1.21;100.00
10470;BME280;5282;47.052;15.458;2023-02-12T07:54:32;99291.25;;;1.25;100.00
10470;BME280;5282;47.052;15.458;2023-02-12T07:57:00;99296.59;;;1.23;100.00
10470;BME280;5282;47.052;15.458;2023-02-12T07:59:29;99300.44;;;1.16;100.00
10470;BME280;5282;47.052;15.458;2023-02-12T08:01:57;99279.75;;;1.25;100.00
10470;BME280;5282;47.052;15.458;2023-02-12T08:04:25;99288.91;;;1.38;100.00
10470;BME280;5282;47.052;15.458;2023-02-12T08:06:54;99291.66;;;1.56;100.00
10470;BME280;5282;47.052;15.458;2023-02-12T08:09:23;99295.31;;;1.74;100.00
10470;BME280;5282;47.052;15.458;2023-02-12T08:11:50;99293.78;;;1.89;100.00
10470;BME280;5282;47.052;15.458;2023-02-12T08:14:20;99285.25;;;2.01;100.00
10470;BME280;5282;47.052;15.458;2023-02-12T08:16:48;99294.22;;;2.18;100.00
10470;BME280;5282;47.052;15.458;2023-02-12T08:19:16;99282.09;;;2.31;100.00
10470;BME280;5282;47.052;15.458;2023-02-12T08:21:44;99285.09;;;2.42;100.00
10470;BME280;5282;47.052;15.458;2023-02-12T08:24:11;99279.97;;;2.57;100.00
10470;BME280;5282;47.052;15.458;2023-02-12T08:26:39;99286.63;;;2.66;100.00
10470;BME280;5282;47.052;15.458;2023-02-12T08:29:07;99286.97;;;2.77;100.00
10470;BME280;5282;47.052;15.458;2023-02-12T08:31:38;99280.28;;;2.87;100.00
10470;BME280;5282;47.052;15.458;2023-02-12T08:34:06;99283.03;;;3.03;99.98
10470;BME280;5282;47.052;15.458;2023-02-12T08:36:35;99294.06;;;2.96;97.00
10470;BME280;5282;47.052;15.458;2023-02-12T08:39:04;99288.03;;;2.92;100.00
10470;BME280;5282;47.052;15.458;2023-02-12T08:41:31;99281.31;;;3.02;100.00
10470;BME280;5282;47.052;15.458;2023-02-12T08:44:00;99284.13;;;2.99;100.00
10470;BME280;5282;47.052;15.458;2023-02-12T08:46:29;99282.94;;;3.05;100.00
10470;BME280;5282;47.052;15.458;2023-02-12T08:49:00;99288.97;;;2.91;100.00
10470;BME280;5282;47.052;15.458;2023-02-12T08:51:29;99303.94;;;2.74;100.00
10470;BME280;5282;47.052;15.458;2023-02-12T08:53:57;99300.91;;;2.82;100.00
10470;BME280;5282;47.052;15.458;2023-02-12T08:56:25;99310.72;;;2.82;100.00
10470;BME280;5282;47.052;15.458;2023-02-12T08:58:53;99316.72;;;3.22;100.00
10470;BME280;5282;47.052;15.458;2023-02-12T09:01:21;99316.47;;;3.27;98.66
10470;BME280;5282;47.052;15.458;2023-02-12T09:03:49;99309.50;;;3.24;95.85
10470;BME280;5282;47.052;15.458;2023-02-12T09:06:20;99309.69;;;3.38;94.89
10470;BME280;5282;47.052;15.458;2023-02-12T09:08:50;99311.69;;;3.33;93.41
10470;BME280;5282;47.052;15.458;2023-02-12T09:11:19;99315.28;;;3.32;93.45
10470;BME280;5282;47.052;15.458;2023-02-12T09:13:48;99320.31;;;3.56;92.97
10470;BME280;5282;47.052;15.458;2023-02-12T09:16:15;99309.97;;;3.67;90.46
10470;BME280;5282;47.052;15.458;2023-02-12T09:18:42;99319.91;;;3.97;88.28
10470;BME280;5282;47.052;15.458;2023-02-12T09:21:11;99319.38;;;4.24;85.09
10470;BME280;5282;47.052;15.458;2023-02-12T09:23:40;99318.03;;;4.49;82.00
10470;BME280;5282;47.052;15.458;2023-02-12T09:26:08;99327.16;;;4.61;78.56
10470;BME280;5282;47.052;15.458;2023-02-12T09:28:37;99328.13;;;4.76;75.90
10470;BME280;5282;47.052;15.458;2023-02-12T09:31:05;99337.84;;;4.77;76.60
10470;BME280;5282;47.052;15.458;2023-02-12T09:33:32;99343.41;;;4.72;77.29
10470;BME280;5282;47.052;15.458;2023-02-12T09:36:01;99343.94;;;4.79;78.76
10470;BME280;5282;47.052;15.458;2023-02-12T09:38:28;99351.06;;;5.10;78.45
10470;BME280;5282;47.052;15.458;2023-02-12T09:41:11;99344.53;;;5.47;73.60
10470;BME280;5282;47.052;15.458;2023-02-12T09:43:46;99333.91;;;5.76;72.04
10470;BME280;5282;47.052;15.458;2023-02-12T09:46:21;99332.47;;;5.84;66.85
10470;BME280;5282;47.052;15.458;2023-02-12T09:48:59;99335.41;;;6.10;63.30
10470;BME280;5282;47.052;15.458;2023-02-12T09:51:30;99337.03;;;6.27;63.46
10470;BME280;5282;47.052;15.458;2023-02-12T09:54:01;99339.19;;;6.64;61.73
10470;BME280;5282;47.052;15.458;2023-02-12T09:56:33;99333.38;;;6.99;58.73
10470;BME280;5282;47.052;15.458;2023-02-12T09:59:04;99338.56;;;7.15;59.32
10470;BME280;5282;47.052;15.458;2023-02-12T10:01:32;99343.19;;;7.13;56.75
10470;BME280;5282;47.052;15.458;2023-02-12T10:04:00;99338.97;;;7.36;56.72
10470;BME280;5282;47.052;15.458;2023-02-12T10:06:34;99338.41;;;7.84;54.12
10470;BME280;5282;47.052;15.458;2023-02-12T10:09:27;99341.63;;;8.28;50.77
10470;BME280;5282;47.052;15.458;2023-02-12T10:12:03;99335.66;;;8.75;47.81
10470;BME280;5282;47.052;15.458;2023-02-12T10:14:56;99326.56;;;9.02;42.93
10470;BME280;5282;47.052;15.458;2023-02-12T10:17:33;99330.28;;;9.12;43.50
10470;BME280;5282;47.052;15.458;2023-02-12T10:20:19;99332.84;;;8.89;43.91
10470;BME280;5282;47.052;15.458;2023-02-12T10:22:55;99328.47;;;8.75;45.24
10470;BME280;5282;47.052;15.458;2023-02-12T10:25:30;99319.50;;;9.36;46.27
10470;BME280;5282;47.052;15.458;2023-02-12T10:28:08;99326.84;;;9.70;43.83
10470;BME280;5282;47.052;15.458;2023-02-12T10:30:42;99322.50;;;10.14;42.56
10470;BME280;5282;47.052;15.458;2023-02-12T10:33:14;99323.75;;;10.56;42.63
10470;BME280;5282;47.052;15.458;2023-02-12T10:35:46;99333.50;;;10.91;42.25
10470;BME280;5282;47.052;15.458;2023-02-12T10:38:18;99323.19;;;11.07;42.42
10470;BME280;5282;47.052;15.458;2023-02-12T10:40:47;99321.34;;;11.40;40.53
10470;BME280;5282;47.052;15.458;2023-02-12T10:43:17;99320.53;;;11.29;40.11
10470;BME280;5282;47.052;15.458;2023-02-12T10:45:43;99325.50;;;11.66;40.31
10470;BME280;5282;47.052;15.458;2023-02-12T10:48:15;99321.97;;;12.08;39.92
10470;BME280;5282;47.052;15.458;2023-02-12T10:51:01;99318.84;;;12.33;38.96
10470;BME280;5282;47.052;15.458;2023-02-12T10:53:35;99323.22;;;12.25;38.09
10470;BME280;5282;47.052;15.458;2023-02-12T10:56:11;99320.16;;;12.39;37.27
10470;BME280;5282;47.052;15.458;2023-02-12T10:58:49;99313.25;;;12.25;37.96
10470;BME280;5282;47.052;15.458;2023-02-12T11:01:19;99319.47;;;12.47;38.72
10470;BME280;5282;47.052;15.458;2023-02-12T11:03:47;99315.97;;;12.56;37.85
10470;BME280;5282;47.052;15.458;2023-02-12T11:06:16;99308.78;;;12.36;36.94
10470;BME280;5282;47.052;15.458;2023-02-12T11:08:44;99309.19;;;12.41;35.26
10470;BME280;5282;47.052;15.458;2023-02-12T11:11:13;99309.78;;;12.44;35.70
10470;BME280;5282;47.052;15.458;2023-02-12T11:13:51;99313.38;;;12.55;36.47
10470;BME280;5282;47.052;15.458;2023-02-12T11:16:28;99315.19;;;12.13;36.96
10470;BME280;5282;47.052;15.458;2023-02-12T11:18:58;99309.63;;;11.51;38.07
10470;BME280;5282;47.052;15.458;2023-02-12T11:21:25;99310.94;;;12.21;38.92
10470;BME280;5282;47.052;15.458;2023-02-12T11:23:52;99295.34;;;12.55;37.91
10470;BME280;5282;47.052;15.458;2023-02-12T11:26:25;99293.53;;;12.75;38.46
10470;BME280;5282;47.052;15.458;2023-02-12T11:28:57;99293.72;;;13.03;38.26
10470;BME280;5282;47.052;15.458;2023-02-12T11:31:28;99295.59;;;13.22;38.13
10470;BME280;5282;47.052;15.458;2023-02-12T11:34:13;99294.59;;;13.14;37.36
10470;BME280;5282;47.052;15.458;2023-02-12T11:36:43;99290.50;;;13.39;39.03
10470;BME280;5282;47.052;15.458;2023-02-12T11:39:19;99288.75;;;13.77;37.45
10470;BME280;5282;47.052;15.458;2023-02-12T11:41:50;99290.00;;;14.02;37.28
10470;BME280;5282;47.052;15.458;2023-02-12T11:44:23;99295.72;;;13.89;38.51
10470;BME280;5282;47.052;15.458;2023-02-12T11:46:54;99296.16;;;14.32;37.00
10470;BME280;5282;47.052;15.458;2023-02-12T11:49:24;99291.25;;;14.08;36.86
10470;BME280;5282;47.052;15.458;2023-02-12T11:51:54;99284.34;;;13.27;37.80
10470;BME280;5282;47.052;15.458;2023-02-12T11:54:24;99291.44;;;12.99;38.65
10470;BME280;5282;47.052;15.458;2023-02-12T11:56:52;99292.19;;;13.30;37.60
10470;BME280;5282;47.052;15.458;2023-02-12T11:59:29;99290.84;;;12.75;38.56
10470;BME280;5282;47.052;15.458;2023-02-12T12:02:02;99280.19;;;12.84;40.01
10470;BME280;5282;47.052;15.458;2023-02-12T12:04:33;99285.03;;;13.00;39.08
10470;BME280;5282;47.052;15.458;2023-02-12T12:07:06;99275.53;;;12.55;39.25
10470;BME280;5282;47.052;15.458;2023-02-12T12:09:40;99274.75;;;11.81;41.02
10470;BME280;5282;47.052;15.458;2023-02-12T12:12:15;99270.19;;;12.24;39.87
10470;BME280;5282;47.052;15.458;2023-02-12T12:14:49;99269.44;;;12.12;40.95
10470;BME280;5282;47.052;15.458;2023-02-12T12:17:40;99267.28;;;12.37;40.38
10470;BME280;5282;47.052;15.458;2023-02-12T12:20:29;99264.31;;;12.09;40.80
10470;BME280;5282;47.052;15.458;2023-02-12T12:23:02;99259.09;;;12.77;40.62
10470;BME280;5282;47.052;15.458;2023-02-12T12:25:35;99265.13;;;13.01;39.90
10470;BME280;5282;47.052;15.458;2023-02-12T12:28:18;99255.44;;;13.08;38.96
10470;BME280;5282;47.052;15.458;2023-02-12T12:31:12;99256.00;;;13.11;38.44
10470;BME280;5282;47.052;15.458;2023-02-12T12:33:43;99251.78;;;13.29;38.27
10470;BME280;5282;47.052;15.458;2023-02-12T12:36:29;99249.06;;;12.99;37.89
10470;BME280;5282;47.052;15.458;2023-02-12T12:39:09;99246.91;;;12.93;38.93
10470;BME280;5282;47.052;15.458;2023-02-12T12:42:06;99234.22;;;13.72;38.46
10470;BME280;5282;47.052;15.458;2023-02-12T12:44:49;99229.09;;;14.07;36.57
10470;BME280;5282;47.052;15.458;2023-02-12T12:47:32;99239.38;;;13.36;37.44
10470;BME280;5282;47.052;15.458;2023-02-12T12:50:16;99231.13;;;13.18;37.99
10470;BME280;5282;47.052;15.458;2023-02-12T12:53:03;99225.56;;;12.29;39.53
10470;BME280;5282;47.052;15.458;2023-02-12T12:55:55;99232.34;;;12.14;40.21
10470;BME280;5282;47.052;15.458;2023-02-12T12:58:39;99229.66;;;11.93;41.06
10470;BME280;5282;47.052;15.458;2023-02-12T13:01:38;99238.47;;;12.16;41.53
10470;BME280;5282;47.052;15.458;2023-02-12T13:04:31;99231.09;;;12.18;41.01
10470;BME280;5282;47.052;15.458;2023-02-12T13:07:17;99226.00;;;12.25;41.00
10470;BME280;5282;47.052;15.458;2023-02-12T13:10:02;99220.91;;;12.31;40.58
10470;BME280;5282;47.052;15.458;2023-02-12T13:12:59;99228.66;;;12.15;40.82
10470;BME280;5282;47.052;15.458;2023-02-12T13:15:40;99228.28;;;12.29;40.87
10470;BME280;5282;47.052;15.458;2023-02-12T13:18:16;99222.06;;;11.77;41.56